sensor_id;sensor_type;location;lat;lon;timestamp;temperature;humidity
64939;DHT22;51453;47.738;7.420;2022-12-07T00:01:17;3.90;99.90
64939;DHT22;51453;47.738;7.420;2022-12-07T00:03:45;3.80;99.90
64939;DHT22;51453;47.738;7.420;2022-12-07T00:06:13;3.90;99.90
64939;DHT22;51453;47.738;7.420;2022-12-07T00:08:39;3.80;99.90
64939;DHT22;51453;47.738;7.420;2022-12-07T00:11:10;3.80;99.90
64939;DHT22;51453;47.738;7.420;2022-12-07T00:13:36;3.90;99.90
64939;DHT22;51453;47.738;7.420;2022-12-07T00:16:05;3.90;99.90
64939;DHT22;51453;47.738;7.420;2022-12-07T00:18:31;3.80;99.90
64939;DHT22;51453;47.738;7.420;2022-12-07T00:23:34;3.80;99.90
64939;DHT22;51453;47.738;7.420;2022-12-07T00:26:29;3.80;99.90
64939;DHT22;51453;47.738;7.420;2022-12-07T00:28:55;3.80;99.90
64939;DHT22;51453;47.738;7.420;2022-12-07T00:31:24;3.80;99.90
64939;DHT22;51453;47.738;7.420;2022-12-07T00:33:50;3.80;99.90
64939;DHT22;51453;47.738;7.420;2022-12-07T00:36:19;3.80;99.90
64939;DHT22;51453;47.738;7.420;2022-12-07T00:38:45;3.80;99.90
64939;DHT22;51453;47.738;7.420;2022-12-07T00:41:19;3.80;99.90
64939;DHT22;51453;47.738;7.420;2022-12-07T00:43:46;3.80;99.90
64939;DHT22;51453;47.738;7.420;2022-12-07T00:46:13;3.80;99.90
64939;DHT22;51453;47.738;7.420;2022-12-07T00:48:38;3.80;99.90
64939;DHT22;51453;47.738;7.420;2022-12-07T00:51:05;3.80;99.90
64939;DHT22;51453;47.738;7.420;2022-12-07T00:53:34;3.80;99.90
64939;DHT22;51453;47.738;7.420;2022-12-07T00:56:11;3.80;99.90
64939;DHT22;51453;47.738;7.420;2022-12-07T00:58:37;3.80;99.90
64939;DHT22;51453;47.738;7.420;2022-12-07T01:01:04;3.80;99.90
64939;DHT22;51453;47.738;7.420;2022-12-07T01:03:30;3.80;99.90
64939;DHT22;51453;47.738;7.420;2022-12-07T01:05:56;3.80;99.90
64939;DHT22;51453;47.738;7.420;2022-12-07T01:08:24;3.80;99.90
64939;DHT22;51453;47.738;7.420;2022-12-07T01:10:58;3.80;99.90
64939;DHT22;51453;47.738;7.420;2022-12-07T01:13:24;3.80;99.90
64939;DHT22;51453;47.738;7.420;2022-12-07T01:15:50;3.80;99.90
64939;DHT22;51453;47.738;7.420;2022-12-07T01:18:15;3.80;99.90
64939;DHT22;51453;47.738;7.420;2022-12-07T01:20:41;3.70;99.90
64939;DHT22;51453;47.738;7.420;2022-12-07T01:23:07;3.70;99.90
64939;DHT22;51453;47.738;7.420;2022-12-07T01:25:32;3.80;99.90
64939;DHT22;51453;47.738;7.420;2022-12-07T01:27:58;3.80;99.90
64939;DHT22;51453;47.738;7.420;2022-12-07T01:30:24;3.80;99.90
64939;DHT22;51453;47.738;7.420;2022-12-07T01:32:49;3.70;99.90
64939;DHT22;51453;47.738;7.420;2022-12-07T01:35:15;3.80;99.90
64939;DHT22;51453;47.738;7.420;2022-12-07T01:37:41;3.80;99.90
64939;DHT22;51453;47.738;7.420;2022-12-07T01:40:07;3.80;99.90
64939;DHT22;51453;47.738;7.420;2022-12-07T01:42:34;3.80;99.90
64939;DHT22;51453;47.738;7.420;2022-12-07T01:47:46;3.80;99.90
64939;DHT22;51453;47.738;7.420;2022-12-07T01:50:12;3.80;99.90
64939;DHT22;51453;47.738;7.420;2022-12-07T01:52:39;3.80;99.90
64939;DHT22;51453;47.738;7.420;2022-12-07T01:55:09;3.80;99.90
64939;DHT22;51453;47.738;7.420;2022-12-07T01:57:39;3.80;99.90
64939;DHT22;51453;47.738;7.420;2022-12-07T02:00:07;3.80;99.90
64939;DHT22;51453;47.738;7.420;2022-12-07T02:02:36;3.80;99.90
64939;DHT22;51453;47.738;7.420;2022-12-07T02:05:05;3.70;99.90
64939;DHT22;51453;47.738;7.420;2022-12-07T02:07:33;3.80;99.90
64939;DHT22;51453;47.738;7.420;2022-12-07T02:10:25;3.70;99.90
64939;DHT22;51453;47.738;7.420;2022-12-07T02:13:16;3.80;99.90
64939;DHT22;51453;47.738;7.420;2022-12-07T02:30:12;3.80;99.90
64939;DHT22;51453;47.738;7.420;2022-12-07T02:38:02;3.80;99.90
64939;DHT22;51453;47.738;7.420;2022-12-07T02:40:41;3.80;99.90
64939;DHT22;51453;47.738;7.420;2022-12-07T02:43:23;3.80;99.90
64939;DHT22;51453;47.738;7.420;2022-12-07T02:45:52;3.80;99.90
64939;DHT22;51453;47.738;7.420;2022-12-07T02:48:19;3.80;99.90
64939;DHT22;51453;47.738;7.420;2022-12-07T02:50:50;3.80;99.90
64939;DHT22;51453;47.738;7.420;2022-12-07T02:53:34;3.80;99.90
64939;DHT22;51453;47.738;7.420;2022-12-07T03:07:00;3.90;99.90
64939;DHT22;51453;47.738;7.420;2022-12-07T03:09:33;3.80;99.90
64939;DHT22;51453;47.738;7.420;2022-12-07T03:12:10;3.80;99.90
64939;DHT22;51453;47.738;7.420;2022-12-07T03:14:44;3.80;99.90
64939;DHT22;51453;47.738;7.420;2022-12-07T03:17:21;3.80;99.90
64939;DHT22;51453;47.738;7.420;2022-12-07T03:19:48;3.80;99.90
64939;DHT22;51453;47.738;7.420;2022-12-07T03:22:17;3.80;99.90
64939;DHT22;51453;47.738;7.420;2022-12-07T03:24:48;3.80;99.90
64939;DHT22;51453;47.738;7.420;2022-12-07T03:27:24;3.90;99.90
64939;DHT22;51453;47.738;7.420;2022-12-07T03:30:03;3.80;99.90
64939;DHT22;51453;47.738;7.420;2022-12-07T03:32:48;3.80;99.90
64939;DHT22;51453;47.738;7.420;2022-12-07T03:35:23;3.80;99.90
64939;DHT22;51453;47.738;7.420;2022-12-07T03:40:59;3.80;99.90
64939;DHT22;51453;47.738;7.420;2022-12-07T03:43:27;3.70;99.90
64939;DHT22;51453;47.738;7.420;2022-12-07T03:52:05;3.70;99.90
64939;DHT22;51453;47.738;7.420;2022-12-07T03:55:14;3.70;99.90
64939;DHT22;51453;47.738;7.420;2022-12-07T03:57:42;3.70;99.90
64939;DHT22;51453;47.738;7.420;2022-12-07T04:00:13;3.60;99.90
64939;DHT22;51453;47.738;7.420;2022-12-07T04:02:39;3.60;99.90
64939;DHT22;51453;47.738;7.420;2022-12-07T04:05:05;3.60;99.90
64939;DHT22;51453;47.738;7.420;2022-12-07T04:07:31;3.60;99.90
64939;DHT22;51453;47.738;7.420;2022-12-07T04:09:56;3.60;99.90
64939;DHT22;51453;47.738;7.420;2022-12-07T04:12:22;3.60;99.90
64939;DHT22;51453;47.738;7.420;2022-12-07T04:14:48;3.60;99.90
64939;DHT22;51453;47.738;7.420;2022-12-07T04:17:14;3.60;99.90
64939;DHT22;51453;47.738;7.420;2022-12-07T04:19:39;3.60;99.90
64939;DHT22;51453;47.738;7.420;2022-12-07T04:22:05;3.60;99.90
64939;DHT22;51453;47.738;7.420;2022-12-07T04:24:31;3.60;99.90
64939;DHT22;51453;47.738;7.420;2022-12-07T04:26:57;3.60;99.90
64939;DHT22;51453;47.738;7.420;2022-12-07T04:29:23;3.60;99.90
64939;DHT22;51453;47.738;7.420;2022-12-07T04:31:49;3.60;99.90
64939;DHT22;51453;47.738;7.420;2022-12-07T04:34:15;3.60;99.90
64939;DHT22;51453;47.738;7.420;2022-12-07T04:36:42;3.60;99.90
64939;DHT22;51453;47.738;7.420;2022-12-07T04:39:34;3.50;99.90
64939;DHT22;51453;47.738;7.420;2022-12-07T04:42:00;3.50;99.90
64939;DHT22;51453;47.738;7.420;2022-12-07T04:44:27;3.50;99.90
64939;DHT22;51453;47.738;7.420;2022-12-07T04:46:53;3.50;99.90
64939;DHT22;51453;47.738;7.420;2022-12-07T04:49:19;3.50;99.90
64939;DHT22;51453;47.738;7.420;2022-12-07T04:51:45;3.40;99.90
64939;DHT22;51453;47.738;7.420;2022-12-07T04:54:12;3.40;99.90
64939;DHT22;51453;47.738;7.420;2022-12-07T04:56:38;3.50;99.90
64939;DHT22;51453;47.738;7.420;2022-12-07T04:59:04;3.40;99.90
64939;DHT22;51453;47.738;7.420;2022-12-07T05:01:31;3.40;99.90
64939;DHT22;51453;47.738;7.420;2022-12-07T05:03:57;3.40;99.90
64939;DHT22;51453;47.738;7.420;2022-12-07T05:06:23;3.40;99.90
64939;DHT22;51453;47.738;7.420;2022-12-07T05:08:48;3.40;99.90
64939;DHT22;51453;47.738;7.420;2022-12-07T05:11:15;3.40;99.90
64939;DHT22;51453;47.738;7.420;2022-12-07T05:14:01;3.40;99.90
64939;DHT22;51453;47.738;7.420;2022-12-07T05:16:27;3.40;99.90
64939;DHT22;51453;47.738;7.420;2022-12-07T05:18:53;3.30;99.90
64939;DHT22;51453;47.738;7.420;2022-12-07T05:21:19;3.40;99.90
64939;DHT22;51453;47.738;7.420;2022-12-07T05:23:47;3.30;99.90
64939;DHT22;51453;47.738;7.420;2022-12-07T05:26:13;3.30;99.90
64939;DHT22;51453;47.738;7.420;2022-12-07T05:28:39;3.30;99.90
64939;DHT22;51453;47.738;7.420;2022-12-07T05:31:04;3.20;99.90
64939;DHT22;51453;47.738;7.420;2022-12-07T05:33:30;3.20;99.90
64939;DHT22;51453;47.738;7.420;2022-12-07T05:35:56;3.20;99.90
64939;DHT22;51453;47.738;7.420;2022-12-07T05:38:21;3.10;99.90
64939;DHT22;51453;47.738;7.420;2022-12-07T05:40:47;3.10;99.90
64939;DHT22;51453;47.738;7.420;2022-12-07T05:43:12;3.00;99.90
64939;DHT22;51453;47.738;7.420;2022-12-07T05:45:38;3.00;99.90
64939;DHT22;51453;47.738;7.420;2022-12-07T05:48:04;2.90;99.90
64939;DHT22;51453;47.738;7.420;2022-12-07T05:50:29;2.90;99.90
64939;DHT22;51453;47.738;7.420;2022-12-07T05:52:55;2.90;99.90
64939;DHT22;51453;47.738;7.420;2022-12-07T05:55:21;2.90;99.90
64939;DHT22;51453;47.738;7.420;2022-12-07T05:57:46;2.90;99.90
64939;DHT22;51453;47.738;7.420;2022-12-07T06:00:31;2.90;99.90
64939;DHT22;51453;47.738;7.420;2022-12-07T06:02:56;2.80;99.90
64939;DHT22;51453;47.738;7.420;2022-12-07T06:05:22;2.80;99.90
64939;DHT22;51453;47.738;7.420;2022-12-07T06:07:48;2.80;99.90
64939;DHT22;51453;47.738;7.420;2022-12-07T06:10:14;2.70;99.90
64939;DHT22;51453;47.738;7.420;2022-12-07T06:12:40;2.70;99.90
64939;DHT22;51453;47.738;7.420;2022-12-07T06:15:09;2.60;99.90
64939;DHT22;51453;47.738;7.420;2022-12-07T06:17:35;2.60;99.90
64939;DHT22;51453;47.738;7.420;2022-12-07T06:20:02;2.60;99.90
64939;DHT22;51453;47.738;7.420;2022-12-07T06:22:28;2.40;99.90
64939;DHT22;51453;47.738;7.420;2022-12-07T06:24:53;2.40;99.90
64939;DHT22;51453;47.738;7.420;2022-12-07T06:27:19;2.40;99.90
64939;DHT22;51453;47.738;7.420;2022-12-07T06:29:45;2.30;99.90
64939;DHT22;51453;47.738;7.420;2022-12-07T06:32:11;2.30;99.90
64939;DHT22;51453;47.738;7.420;2022-12-07T06:34:37;2.20;99.90
64939;DHT22;51453;47.738;7.420;2022-12-07T06:37:03;2.10;99.90
64939;DHT22;51453;47.738;7.420;2022-12-07T06:39:29;2.10;99.90
64939;DHT22;51453;47.738;7.420;2022-12-07T06:41:55;2.00;99.90
64939;DHT22;51453;47.738;7.420;2022-12-07T06:44:22;2.00;99.90
64939;DHT22;51453;47.738;7.420;2022-12-07T06:46:48;1.90;99.90
64939;DHT22;51453;47.738;7.420;2022-12-07T06:49:14;1.90;99.90
64939;DHT22;51453;47.738;7.420;2022-12-07T06:51:40;1.80;99.90
64939;DHT22;51453;47.738;7.420;2022-12-07T06:54:10;1.90;99.90
64939;DHT22;51453;47.738;7.420;2022-12-07T06:56:36;1.90;99.90
64939;DHT22;51453;47.738;7.420;2022-12-07T06:59:03;1.90;99.90
64939;DHT22;51453;47.738;7.420;2022-12-07T07:01:29;1.90;99.90
64939;DHT22;51453;47.738;7.420;2022-12-07T07:03:54;1.90;99.90
64939;DHT22;51453;47.738;7.420;2022-12-07T07:06:20;1.90;99.90
64939;DHT22;51453;47.738;7.420;2022-12-07T07:08:46;2.00;99.90
64939;DHT22;51453;47.738;7.420;2022-12-07T07:11:11;1.90;99.90
64939;DHT22;51453;47.738;7.420;2022-12-07T07:13:37;2.00;99.90
64939;DHT22;51453;47.738;7.420;2022-12-07T07:16:04;1.90;99.90
64939;DHT22;51453;47.738;7.420;2022-12-07T07:18:29;1.90;99.90
64939;DHT22;51453;47.738;7.420;2022-12-07T07:20:55;2.00;99.90
64939;DHT22;51453;47.738;7.420;2022-12-07T07:23:21;2.00;99.90
64939;DHT22;51453;47.738;7.420;2022-12-07T07:25:48;1.80;99.90
64939;DHT22;51453;47.738;7.420;2022-12-07T07:28:14;1.90;99.90
64939;DHT22;51453;47.738;7.420;2022-12-07T07:30:40;1.90;99.90
64939;DHT22;51453;47.738;7.420;2022-12-07T07:33:06;1.80;99.90
64939;DHT22;51453;47.738;7.420;2022-12-07T07:35:33;1.80;99.90
64939;DHT22;51453;47.738;7.420;2022-12-07T07:37:58;1.80;99.90
64939;DHT22;51453;47.738;7.420;2022-12-07T07:40:25;1.80;99.90
64939;DHT22;51453;47.738;7.420;2022-12-07T07:42:52;1.80;99.90
64939;DHT22;51453;47.738;7.420;2022-12-07T07:45:19;1.70;99.90
64939;DHT22;51453;47.738;7.420;2022-12-07T07:47:45;1.70;99.90
64939;DHT22;51453;47.738;7.420;2022-12-07T07:50:11;1.70;99.90
64939;DHT22;51453;47.738;7.420;2022-12-07T07:52:36;1.70;99.90
64939;DHT22;51453;47.738;7.420;2022-12-07T07:55:02;1.70;99.90
64939;DHT22;51453;47.738;7.420;2022-12-07T07:57:28;1.70;99.90
64939;DHT22;51453;47.738;7.420;2022-12-07T07:59:57;1.60;99.90
64939;DHT22;51453;47.738;7.420;2022-12-07T08:02:22;1.70;99.90
64939;DHT22;51453;47.738;7.420;2022-12-07T08:04:48;1.70;99.90
64939;DHT22;51453;47.738;7.420;2022-12-07T08:07:15;1.70;99.90
64939;DHT22;51453;47.738;7.420;2022-12-07T08:09:41;1.70;99.90
64939;DHT22;51453;47.738;7.420;2022-12-07T08:12:07;1.70;99.90
64939;DHT22;51453;47.738;7.420;2022-12-07T08:14:33;1.70;99.90
64939;DHT22;51453;47.738;7.420;2022-12-07T08:17:00;1.70;99.90
64939;DHT22;51453;47.738;7.420;2022-12-07T08:19:26;1.60;99.90
64939;DHT22;51453;47.738;7.420;2022-12-07T08:21:52;1.60;99.90
64939;DHT22;51453;47.738;7.420;2022-12-07T08:24:18;1.60;99.90
64939;DHT22;51453;47.738;7.420;2022-12-07T08:26:43;1.60;99.90
64939;DHT22;51453;47.738;7.420;2022-12-07T08:29:09;1.60;99.90
64939;DHT22;51453;47.738;7.420;2022-12-07T08:31:35;1.60;99.90
64939;DHT22;51453;47.738;7.420;2022-12-07T08:34:01;1.70;99.90
64939;DHT22;51453;47.738;7.420;2022-12-07T08:36:30;1.70;99.90
64939;DHT22;51453;47.738;7.420;2022-12-07T08:38:55;1.90;99.90
64939;DHT22;51453;47.738;7.420;2022-12-07T08:41:21;1.90;99.90
64939;DHT22;51453;47.738;7.420;2022-12-07T08:43:47;2.00;99.90
64939;DHT22;51453;47.738;7.420;2022-12-07T08:46:26;2.10;99.90
64939;DHT22;51453;47.738;7.420;2022-12-07T08:49:03;2.20;99.90
64939;DHT22;51453;47.738;7.420;2022-12-07T08:51:30;2.30;99.90
64939;DHT22;51453;47.738;7.420;2022-12-07T08:53:56;2.40;99.90
64939;DHT22;51453;47.738;7.420;2022-12-07T08:56:24;2.60;99.90
64939;DHT22;51453;47.738;7.420;2022-12-07T08:58:50;2.70;99.90
64939;DHT22;51453;47.738;7.420;2022-12-07T09:01:17;2.70;99.90
64939;DHT22;51453;47.738;7.420;2022-12-07T09:03:42;2.70;99.90
64939;DHT22;51453;47.738;7.420;2022-12-07T09:06:08;2.80;99.90
64939;DHT22;51453;47.738;7.420;2022-12-07T09:08:40;3.00;99.90
64939;DHT22;51453;47.738;7.420;2022-12-07T09:11:07;3.20;99.90
64939;DHT22;51453;47.738;7.420;2022-12-07T09:13:33;3.20;99.90
64939;DHT22;51453;47.738;7.420;2022-12-07T09:15:59;3.20;99.90
64939;DHT22;51453;47.738;7.420;2022-12-07T09:18:25;3.30;99.90
64939;DHT22;51453;47.738;7.420;2022-12-07T09:20:51;3.30;99.90
64939;DHT22;51453;47.738;7.420;2022-12-07T09:23:17;3.40;99.90
64939;DHT22;51453;47.738;7.420;2022-12-07T09:25:43;3.40;99.90
64939;DHT22;51453;47.738;7.420;2022-12-07T09:28:08;3.20;99.90
64939;DHT22;51453;47.738;7.420;2022-12-07T09:30:34;3.20;99.90
64939;DHT22;51453;47.738;7.420;2022-12-07T09:33:03;3.20;99.90
64939;DHT22;51453;47.738;7.420;2022-12-07T09:35:29;3.30;99.90
64939;DHT22;51453;47.738;7.420;2022-12-07T09:37:55;3.30;99.90
64939;DHT22;51453;47.738;7.420;2022-12-07T09:40:22;3.40;99.90
64939;DHT22;51453;47.738;7.420;2022-12-07T09:42:52;3.50;99.90
64939;DHT22;51453;47.738;7.420;2022-12-07T09:45:28;3.60;99.90
64939;DHT22;51453;47.738;7.420;2022-12-07T09:47:58;3.70;99.90
64939;DHT22;51453;47.738;7.420;2022-12-07T09:50:26;3.70;99.90
64939;DHT22;51453;47.738;7.420;2022-12-07T09:52:53;3.70;99.90
64939;DHT22;51453;47.738;7.420;2022-12-07T09:55:29;3.70;99.90
64939;DHT22;51453;47.738;7.420;2022-12-07T09:57:57;3.70;99.90
64939;DHT22;51453;47.738;7.420;2022-12-07T10:00:24;3.80;99.90
64939;DHT22;51453;47.738;7.420;2022-12-07T10:03:02;3.90;99.90
64939;DHT22;51453;47.738;7.420;2022-12-07T10:05:39;4.00;99.90
64939;DHT22;51453;47.738;7.420;2022-12-07T10:08:07;4.00;99.90
64939;DHT22;51453;47.738;7.420;2022-12-07T10:10:34;4.00;99.90
64939;DHT22;51453;47.738;7.420;2022-12-07T10:13:15;4.00;99.90
64939;DHT22;51453;47.738;7.420;2022-12-07T10:15:51;3.90;99.90
64939;DHT22;51453;47.738;7.420;2022-12-07T10:18:34;3.90;99.90
64939;DHT22;51453;47.738;7.420;2022-12-07T10:21:08;4.00;99.90
64939;DHT22;51453;47.738;7.420;2022-12-07T10:23:36;4.20;99.90
64939;DHT22;51453;47.738;7.420;2022-12-07T10:26:29;4.40;99.90
64939;DHT22;51453;47.738;7.420;2022-12-07T10:28:58;4.50;99.90
64939;DHT22;51453;47.738;7.420;2022-12-07T10:31:24;4.50;99.90
64939;DHT22;51453;47.738;7.420;2022-12-07T10:33:58;4.50;99.90
64939;DHT22;51453;47.738;7.420;2022-12-07T10:36:36;4.30;99.90
64939;DHT22;51453;47.738;7.420;2022-12-07T10:39:12;4.20;99.90
64939;DHT22;51453;47.738;7.420;2022-12-07T10:41:54;4.20;99.90
64939;DHT22;51453;47.738;7.420;2022-12-07T10:44:26;4.30;99.90
64939;DHT22;51453;47.738;7.420;2022-12-07T10:55:53;4.60;99.90
64939;DHT22;51453;47.738;7.420;2022-12-07T11:20:49;4.60;99.90
64939;DHT22;51453;47.738;7.420;2022-12-07T11:23:39;4.60;99.90
64939;DHT22;51453;47.738;7.420;2022-12-07T11:31:51;4.70;99.90
64939;DHT22;51453;47.738;7.420;2022-12-07T11:36:52;4.80;99.90
64939;DHT22;51453;47.738;7.420;2022-12-07T11:39:30;4.90;99.90
64939;DHT22;51453;47.738;7.420;2022-12-07T11:42:19;5.00;99.90
64939;DHT22;51453;47.738;7.420;2022-12-07T11:44:53;5.00;99.90
64939;DHT22;51453;47.738;7.420;2022-12-07T11:47:35;5.00;99.90
64939;DHT22;51453;47.738;7.420;2022-12-07T11:57:58;5.10;99.90
64939;DHT22;51453;47.738;7.420;2022-12-07T12:00:27;5.20;99.90
64939;DHT22;51453;47.738;7.420;2022-12-07T12:03:13;5.20;99.90
64939;DHT22;51453;47.738;7.420;2022-12-07T12:05:41;5.20;99.90
64939;DHT22;51453;47.738;7.420;2022-12-07T12:08:33;5.30;99.90
64939;DHT22;51453;47.738;7.420;2022-12-07T12:14:42;5.30;99.90
64939;DHT22;51453;47.738;7.420;2022-12-07T12:19:42;5.30;99.90
64939;DHT22;51453;47.738;7.420;2022-12-07T12:22:17;5.30;99.90
64939;DHT22;51453;47.738;7.420;2022-12-07T12:24:47;5.30;99.90
64939;DHT22;51453;47.738;7.420;2022-12-07T12:27:27;5.40;99.90
64939;DHT22;51453;47.738;7.420;2022-12-07T12:29:58;5.40;99.90
64939;DHT22;51453;47.738;7.420;2022-12-07T12:32:45;5.40;99.90
64939;DHT22;51453;47.738;7.420;2022-12-07T12:37:49;5.40;99.90
64939;DHT22;51453;47.738;7.420;2022-12-07T12:42:50;5.50;99.90
64939;DHT22;51453;47.738;7.420;2022-12-07T12:45:29;5.50;99.90
64939;DHT22;51453;47.738;7.420;2022-12-07T12:48:00;5.40;99.90
64939;DHT22;51453;47.738;7.420;2022-12-07T12:50:34;5.50;99.90
64939;DHT22;51453;47.738;7.420;2022-12-07T12:58:30;5.40;99.90
64939;DHT22;51453;47.738;7.420;2022-12-07T13:03:59;5.60;99.90
64939;DHT22;51453;47.738;7.420;2022-12-07T13:08:56;5.70;99.90
64939;DHT22;51453;47.738;7.420;2022-12-07T13:11:34;5.70;99.90
64939;DHT22;51453;47.738;7.420;2022-12-07T13:20:00;5.70;99.90
64939;DHT22;51453;47.738;7.420;2022-12-07T13:27:50;5.80;99.90
64939;DHT22;51453;47.738;7.420;2022-12-07T13:30:21;5.80;99.90
64939;DHT22;51453;47.738;7.420;2022-12-07T13:32:55;5.80;99.90
64939;DHT22;51453;47.738;7.420;2022-12-07T13:35:32;5.80;99.90
64939;DHT22;51453;47.738;7.420;2022-12-07T13:37:59;5.80;99.90
64939;DHT22;51453;47.738;7.420;2022-12-07T13:40:26;5.80;99.90
64939;DHT22;51453;47.738;7.420;2022-12-07T13:43:04;5.90;99.90
64939;DHT22;51453;47.738;7.420;2022-12-07T13:45:32;5.90;99.90
64939;DHT22;51453;47.738;7.420;2022-12-07T13:48:42;5.90;99.90
64939;DHT22;51453;47.738;7.420;2022-12-07T13:51:25;5.90;99.90
64939;DHT22;51453;47.738;7.420;2022-12-07T13:53:55;5.80;99.90
64939;DHT22;51453;47.738;7.420;2022-12-07T13:56:31;5.90;99.90
64939;DHT22;51453;47.738;7.420;2022-12-07T13:58:57;5.80;99.90
64939;DHT22;51453;47.738;7.420;2022-12-07T14:01:24;5.80;99.90
64939;DHT22;51453;47.738;7.420;2022-12-07T14:03:50;5.80;99.90
64939;DHT22;51453;47.738;7.420;2022-12-07T14:06:51;5.80;99.90
64939;DHT22;51453;47.738;7.420;2022-12-07T14:09:18;5.80;99.90
64939;DHT22;51453;47.738;7.420;2022-12-07T14:11:46;5.70;99.90
64939;DHT22;51453;47.738;7.420;2022-12-07T14:14:22;5.70;99.90
64939;DHT22;51453;47.738;7.420;2022-12-07T14:17:20;5.60;99.90
64939;DHT22;51453;47.738;7.420;2022-12-07T14:22:38;5.60;99.90
64939;DHT22;51453;47.738;7.420;2022-12-07T14:27:38;5.60;99.90
64939;DHT22;51453;47.738;7.420;2022-12-07T14:30:05;5.50;99.90
64939;DHT22;51453;47.738;7.420;2022-12-07T14:32:34;5.50;99.90
64939;DHT22;51453;47.738;7.420;2022-12-07T14:35:12;5.40;99.90
64939;DHT22;51453;47.738;7.420;2022-12-07T14:37:39;5.20;99.90
64939;DHT22;51453;47.738;7.420;2022-12-07T14:40:06;5.20;99.90
64939;DHT22;51453;47.738;7.420;2022-12-07T14:42:33;5.10;99.90
64939;DHT22;51453;47.738;7.420;2022-12-07T14:44:59;5.10;99.90
64939;DHT22;51453;47.738;7.420;2022-12-07T14:47:26;5.00;99.90
64939;DHT22;51453;47.738;7.420;2022-12-07T14:49:52;4.90;99.90
64939;DHT22;51453;47.738;7.420;2022-12-07T14:52:24;4.80;99.90
64939;DHT22;51453;47.738;7.420;2022-12-07T14:54:52;4.70;99.90
64939;DHT22;51453;47.738;7.420;2022-12-07T14:57:18;4.50;99.90
64939;DHT22;51453;47.738;7.420;2022-12-07T14:59:44;4.40;99.90
64939;DHT22;51453;47.738;7.420;2022-12-07T15:02:12;4.30;99.90
64939;DHT22;51453;47.738;7.420;2022-12-07T15:04:38;4.20;99.90
64939;DHT22;51453;47.738;7.420;2022-12-07T15:07:06;4.00;99.90
64939;DHT22;51453;47.738;7.420;2022-12-07T15:09:34;3.90;99.90
64939;DHT22;51453;47.738;7.420;2022-12-07T15:12:00;3.90;99.90
64939;DHT22;51453;47.738;7.420;2022-12-07T15:14:25;3.90;99.90
64939;DHT22;51453;47.738;7.420;2022-12-07T15:16:51;3.90;99.90
64939;DHT22;51453;47.738;7.420;2022-12-07T15:19:19;4.10;99.90
64939;DHT22;51453;47.738;7.420;2022-12-07T15:21:51;4.30;99.90
64939;DHT22;51453;47.738;7.420;2022-12-07T15:24:17;4.30;99.90
64939;DHT22;51453;47.738;7.420;2022-12-07T15:26:43;4.30;99.90
64939;DHT22;51453;47.738;7.420;2022-12-07T15:29:10;4.20;99.90
64939;DHT22;51453;47.738;7.420;2022-12-07T15:31:37;4.00;99.90
64939;DHT22;51453;47.738;7.420;2022-12-07T15:34:03;3.80;99.90
64939;DHT22;51453;47.738;7.420;2022-12-07T15:36:31;3.60;99.90
64939;DHT22;51453;47.738;7.420;2022-12-07T15:38:57;3.30;99.90
64939;DHT22;51453;47.738;7.420;2022-12-07T15:41:23;3.10;99.90
64939;DHT22;51453;47.738;7.420;2022-12-07T15:43:49;2.90;99.90
64939;DHT22;51453;47.738;7.420;2022-12-07T15:46:36;2.70;99.90
64939;DHT22;51453;47.738;7.420;2022-12-07T15:49:03;2.50;99.90
64939;DHT22;51453;47.738;7.420;2022-12-07T15:51:29;2.30;99.90
64939;DHT22;51453;47.738;7.420;2022-12-07T15:53:57;2.20;99.90
64939;DHT22;51453;47.738;7.420;2022-12-07T15:56:23;2.10;99.90
64939;DHT22;51453;47.738;7.420;2022-12-07T15:58:48;2.10;99.90
64939;DHT22;51453;47.738;7.420;2022-12-07T16:01:16;1.90;99.90
64939;DHT22;51453;47.738;7.420;2022-12-07T16:03:43;1.80;99.90
64939;DHT22;51453;47.738;7.420;2022-12-07T16:06:09;1.80;99.90
64939;DHT22;51453;47.738;7.420;2022-12-07T16:08:35;1.70;99.90
64939;DHT22;51453;47.738;7.420;2022-12-07T16:11:04;1.70;99.90
64939;DHT22;51453;47.738;7.420;2022-12-07T16:13:30;1.60;99.90
64939;DHT22;51453;47.738;7.420;2022-12-07T16:15:56;1.60;99.90
64939;DHT22;51453;47.738;7.420;2022-12-07T16:18:25;1.60;99.90
64939;DHT22;51453;47.738;7.420;2022-12-07T16:20:51;1.50;99.90
64939;DHT22;51453;47.738;7.420;2022-12-07T16:23:17;1.50;99.90
64939;DHT22;51453;47.738;7.420;2022-12-07T16:25:42;1.40;99.90
64939;DHT22;51453;47.738;7.420;2022-12-07T16:28:08;1.40;99.90
64939;DHT22;51453;47.738;7.420;2022-12-07T16:30:34;1.40;99.90
64939;DHT22;51453;47.738;7.420;2022-12-07T16:32:59;1.30;99.90
64939;DHT22;51453;47.738;7.420;2022-12-07T16:35:25;1.30;99.90
64939;DHT22;51453;47.738;7.420;2022-12-07T16:37:51;1.30;99.90
64939;DHT22;51453;47.738;7.420;2022-12-07T16:40:17;1.30;99.90
64939;DHT22;51453;47.738;7.420;2022-12-07T16:42:42;1.20;99.90
64939;DHT22;51453;47.738;7.420;2022-12-07T16:45:08;1.20;99.90
64939;DHT22;51453;47.738;7.420;2022-12-07T16:47:37;1.20;99.90
64939;DHT22;51453;47.738;7.420;2022-12-07T16:50:03;1.10;99.90
64939;DHT22;51453;47.738;7.420;2022-12-07T16:52:29;1.10;99.90
64939;DHT22;51453;47.738;7.420;2022-12-07T16:54:54;1.10;99.90
64939;DHT22;51453;47.738;7.420;2022-12-07T16:57:20;1.00;99.90
64939;DHT22;51453;47.738;7.420;2022-12-07T16:59:46;1.10;99.90
64939;DHT22;51453;47.738;7.420;2022-12-07T17:02:11;1.00;99.90
64939;DHT22;51453;47.738;7.420;2022-12-07T17:04:37;1.00;99.90
64939;DHT22;51453;47.738;7.420;2022-12-07T17:07:07;1.00;99.90
64939;DHT22;51453;47.738;7.420;2022-12-07T17:09:33;0.90;99.90
64939;DHT22;51453;47.738;7.420;2022-12-07T17:12:00;0.90;99.90
64939;DHT22;51453;47.738;7.420;2022-12-07T17:14:26;0.80;99.90
64939;DHT22;51453;47.738;7.420;2022-12-07T17:17:11;0.80;99.90
64939;DHT22;51453;47.738;7.420;2022-12-07T17:19:37;0.80;99.90
64939;DHT22;51453;47.738;7.420;2022-12-07T17:22:02;0.80;99.90
64939;DHT22;51453;47.738;7.420;2022-12-07T17:24:28;0.70;99.90
64939;DHT22;51453;47.738;7.420;2022-12-07T17:26:57;0.70;99.90
64939;DHT22;51453;47.738;7.420;2022-12-07T17:29:22;0.70;99.90
64939;DHT22;51453;47.738;7.420;2022-12-07T17:31:48;0.70;99.90
64939;DHT22;51453;47.738;7.420;2022-12-07T17:34:15;0.70;99.90
64939;DHT22;51453;47.738;7.420;2022-12-07T17:36:41;0.70;99.90
64939;DHT22;51453;47.738;7.420;2022-12-07T17:39:12;0.80;99.90
64939;DHT22;51453;47.738;7.420;2022-12-07T17:41:39;0.70;99.90
64939;DHT22;51453;47.738;7.420;2022-12-07T17:44:23;0.70;99.90
64939;DHT22;51453;47.738;7.420;2022-12-07T17:46:52;0.70;99.90
64939;DHT22;51453;47.738;7.420;2022-12-07T17:49:20;0.70;99.90
64939;DHT22;51453;47.738;7.420;2022-12-07T17:51:46;0.70;99.90
64939;DHT22;51453;47.738;7.420;2022-12-07T17:54:30;0.60;99.90
64939;DHT22;51453;47.738;7.420;2022-12-07T17:56:56;0.50;99.90
64939;DHT22;51453;47.738;7.420;2022-12-07T17:59:23;0.40;99.90
64939;DHT22;51453;47.738;7.420;2022-12-07T18:01:52;0.40;99.90
64939;DHT22;51453;47.738;7.420;2022-12-07T18:04:18;0.30;99.90
64939;DHT22;51453;47.738;7.420;2022-12-07T18:06:44;0.20;99.90
64939;DHT22;51453;47.738;7.420;2022-12-07T18:09:11;0.20;99.90